Ci?li Airport


Codes: LTBL/IGL
Name: Ci?li Airport
City:
Country: Turkey
Elevation: 16 ft.
Wikipedia:

Photos at Ci?li Airport


   Photos courtesy of SpottingLog. You can add your own sightings and photos by signing up for a free trial today.



No photos found.

Weather at Ci?li Airport


Time (UTC)DescriptionTempratureWindCloud coverageVisibilityPressureHumidity
16-Jun-2024 00:00Clear Sky25°C4 mph, NE0%10000m1009hPa41%
16-Jun-2024 03:00Clear Sky23°C4 mph, NE0%10000m1009hPa47%
16-Jun-2024 06:00Clear Sky26°C9 mph, NE0%10000m1009hPa37%
16-Jun-2024 09:00Clear Sky33°C11 mph, N0%10000m1009hPa20%
16-Jun-2024 12:00Clear Sky35°C18 mph, NW0%10000m1008hPa17%
16-Jun-2024 15:00Clear Sky33°C18 mph, NW0%10000m1008hPa21%
16-Jun-2024 18:00Clear Sky26°C9 mph, NW0%10000m1009hPa44%
16-Jun-2024 21:00Clear Sky23°C4 mph, N0%10000m1010hPa39%
17-Jun-2024 00:00Few Clouds21°C4 mph, NE18%10000m1010hPa49%
17-Jun-2024 03:00Broken Clouds20°C4 mph, N64%10000m1011hPa53%
17-Jun-2024 06:00Scattered Clouds28°C7 mph, N41%10000m1012hPa29%
17-Jun-2024 09:00Clear Sky35°C11 mph, N0%10000m1011hPa17%
17-Jun-2024 12:00Clear Sky37°C18 mph, N0%10000m1009hPa14%
17-Jun-2024 15:00Clear Sky35°C16 mph, NW1%10000m1010hPa19%
17-Jun-2024 18:00Few Clouds29°C11 mph, NE11%10000m1011hPa25%
17-Jun-2024 21:00Clear Sky25°C7 mph, N0%10000m1012hPa32%
18-Jun-2024 00:00Clear Sky22°C4 mph, N0%10000m1011hPa37%
18-Jun-2024 03:00Clear Sky20°C4 mph, N0%10000m1011hPa41%
18-Jun-2024 06:00Clear Sky28°C7 mph, NE0%10000m1011hPa26%
18-Jun-2024 09:00Clear Sky35°C13 mph, NE1%10000m1011hPa17%
18-Jun-2024 12:00Clear Sky39°C13 mph, NE0%10000m1009hPa12%
18-Jun-2024 15:00Clear Sky38°C20 mph, N2%10000m1009hPa13%
18-Jun-2024 18:00Clear Sky29°C11 mph, N2%10000m1010hPa31%
18-Jun-2024 21:00Clear Sky25°C4 mph, N0%10000m1011hPa44%
19-Jun-2024 00:00Clear Sky23°C4 mph, N0%10000m1011hPa53%
19-Jun-2024 03:00Clear Sky21°C4 mph, NE0%10000m1010hPa60%
19-Jun-2024 06:00Clear Sky28°C7 mph, NE0%10000m1011hPa38%
19-Jun-2024 09:00Clear Sky36°C9 mph, NE0%10000m1010hPa22%
19-Jun-2024 12:00Clear Sky40°C11 mph, N0%10000m1008hPa16%
19-Jun-2024 15:00Clear Sky38°C20 mph, N0%10000m1008hPa19%
19-Jun-2024 18:00Clear Sky30°C9 mph, N0%10000m1009hPa32%
19-Jun-2024 21:00Clear Sky25°C4 mph, N0%10000m1010hPa46%
20-Jun-2024 00:00Clear Sky22°C4 mph, N0%10000m1010hPa56%
20-Jun-2024 03:00Clear Sky21°C4 mph, NE0%10000m1010hPa60%
20-Jun-2024 06:00Clear Sky29°C9 mph, NE0%10000m1010hPa33%
20-Jun-2024 09:00Clear Sky36°C13 mph, NE0%10000m1009hPa18%
20-Jun-2024 12:00Clear Sky40°C13 mph, NE0%10000m1007hPa15%
20-Jun-2024 15:00Clear Sky39°C18 mph, NE0%10000m1006hPa14%
20-Jun-2024 18:00Clear Sky31°C9 mph, NE0%10000m1007hPa26%
20-Jun-2024 21:00Clear Sky26°C7 mph, N0%10000m1008hPa42%